Time;durP1;ratioP1;P1;durP2;ratioP2;P2;SDS_P1;SDS_P2;PMS_P1;PMS_P2;Temp;Humidity;BMP_temperature;BMP_pressure;BME280_temperature;BME280_humidity;BME280_pressure;Samples;Min_cycle;Max_cycle;Signal;HPM_P1;HPM_P2
2022/10/13 00:03:49;;;;;;;4.82;2.60;;;;;;;;;;20590620;28;20042;-62
2022/10/13 00:13:52;;;;;;;6.82;2.95;;;;;;;;;;20589534;28;20047;-60
2022/10/13 00:23:54;;;;;;;6.95;2.75;;;;;;;;;;20603282;28;20082;-62
2022/10/13 00:33:59;;;;;;;5.88;2.80;;;;;;;;;;20589407;28;20552;-63
2022/10/13 00:44:03;;;;;;;4.28;2.40;;;;;;;;;;20587237;28;20065;-62
2022/10/13 00:54:05;;;;;;;7.03;3.00;;;;;;;;;;20588189;28;20069;-62
2022/10/13 01:04:07;;;;;;;6.90;2.85;;;;;;;;;;20587650;28;20050;-62
2022/10/13 01:14:13;;;;;;;6.20;3.22;;;;;;;;;;20586033;28;20082;-64
2022/10/13 01:24:17;;;;;;;7.33;3.10;;;;;;;;;;20601417;28;20054;-63
2022/10/13 01:34:35;;;;;;;9.00;3.10;;;;;;;;;;20589576;28;20499;-63
2022/10/13 01:44:43;;;;;;;6.93;2.65;;;;;;;;;;20600938;28;20554;-64
2022/10/13 01:54:51;;;;;;;4.38;2.90;;;;;;;;;;20601120;28;20058;-64
2022/10/13 02:05:01;;;;;;;8.73;3.88;;;;;;;;;;20600284;28;20334;-63
2022/10/13 02:15:08;;;;;;;11.30;6.80;;;;;;;;;;20599035;28;20054;-63
2022/10/13 02:25:13;;;;;;;10.13;5.55;;;;;;;;;;20598126;28;20193;-63
2022/10/13 02:35:21;;;;;;;8.00;4.17;;;;;;;;;;20597817;28;20086;-63
2022/10/13 02:45:25;;;;;;;7.63;3.40;;;;;;;;;;20595365;28;20292;-63
2022/10/13 02:55:33;;;;;;;;;;;;;;;;;;20610705;28;20102;-62
2022/10/13 03:05:36;;;;;;;6.57;3.00;;;;;;;;;;20595573;28;19953;-63
2022/10/13 03:15:39;;;;;;;4.25;2.78;;;;;;;;;;20594622;28;20105;-63
2022/10/13 03:25:41;;;;;;;3.80;2.40;;;;;;;;;;20609209;28;20057;-62
2022/10/13 03:35:44;;;;;;;4.95;2.00;;;;;;;;;;20592997;28;20090;-64
2022/10/13 03:45:56;;;;;;;5.30;2.10;;;;;;;;;;20592445;28;20499;-63
2022/10/13 03:55:58;;;;;;;3.25;2.20;;;;;;;;;;20592074;28;20068;-63
2022/10/13 04:06:02;;;;;;;3.17;2.03;;;;;;;;;;20591205;28;20050;-66
2022/10/13 04:16:06;;;;;;;4.55;2.10;;;;;;;;;;20590820;28;20511;-61
2022/10/13 04:26:15;;;;;;;3.03;2.05;;;;;;;;;;20603742;28;20113;-62
2022/10/13 04:36:19;;;;;;;5.47;2.28;;;;;;;;;;20588962;28;20062;-62
2022/10/13 04:46:24;;;;;;;5.57;2.42;;;;;;;;;;20588177;28;20058;-62
2022/10/13 04:56:26;;;;;;;5.65;2.55;;;;;;;;;;20587619;28;20055;-62
2022/10/13 05:06:30;;;;;;;3.70;2.50;;;;;;;;;;20587427;28;20191;-61
2022/10/13 05:16:32;;;;;;;5.85;2.70;;;;;;;;;;20601425;28;20055;-61
2022/10/13 05:26:35;;;;;;;6.13;2.75;;;;;;;;;;20586696;28;20043;-61
2022/10/13 05:36:36;;;;;;;7.68;3.20;;;;;;;;;;20587124;28;20058;-61
2022/10/13 05:46:38;;;;;;;8.07;3.33;;;;;;;;;;20585206;28;20388;-62
2022/10/13 05:56:47;;;;;;;6.55;2.90;;;;;;;;;;20585428;28;20055;-61
2022/10/13 06:06:49;;;;;;;7.43;2.75;;;;;;;;;;20599588;28;20054;-61
2022/10/13 06:16:51;;;;;;;7.85;3.38;;;;;;;;;;20584922;28;20526;-61
2022/10/13 06:26:53;;;;;;;8.07;3.13;;;;;;;;;;20593958;28;20476;-63
2022/10/13 06:36:55;;;;;;;10.68;3.47;;;;;;;;;;20598286;28;20554;-63
2022/10/13 06:46:57;;;;;;;8.55;3.08;;;;;;;;;;20596891;28;20058;-61
2022/10/13 06:56:59;;;;;;;6.60;3.53;;;;;;;;;;20596018;28;20051;-62
2022/10/13 07:07:01;;;;;;;6.70;3.17;;;;;;;;;;20595479;28;20054;-61
2022/10/13 07:17:02;;;;;;;9.45;3.08;;;;;;;;;;20594656;28;20055;-62
2022/10/13 07:27:04;;;;;;;9.18;3.40;;;;;;;;;;20594291;28;20105;-63
2022/10/13 07:37:06;;;;;;;7.05;3.40;;;;;;;;;;20592578;28;20067;-63
2022/10/13 07:47:08;;;;;;;7.05;4.38;;;;;;;;;;20591588;28;20055;-63
2022/10/13 07:57:10;;;;;;;10.32;5.25;;;;;;;;;;20591368;28;20054;-63
2022/10/13 08:07:11;;;;;;;14.35;5.97;;;;;;;;;;20590376;28;20047;-62
2022/10/13 08:17:13;;;;;;;9.02;5.70;;;;;;;;;;20605239;28;20047;-64
2022/10/13 08:27:18;;;;;;;12.30;6.80;;;;;;;;;;20589031;28;20086;-62
2022/10/13 08:37:20;;;;;;;12.00;7.35;;;;;;;;;;20588947;28;20078;-64
2022/10/13 08:47:37;;;;;;;12.05;5.50;;;;;;;;;;20586825;28;20054;-61
2022/10/13 08:57:39;;;;;;;13.43;6.28;;;;;;;;;;20587728;28;20105;-62
2022/10/13 09:07:42;;;;;;;13.75;8.20;;;;;;;;;;20586526;28;20431;-61
2022/10/13 09:17:43;;;;;;;15.30;6.70;;;;;;;;;;20586297;28;20051;-61
2022/10/13 09:27:48;;;;;;;13.05;6.60;;;;;;;;;;20587266;28;20051;-62
2022/10/13 09:38:06;;;;;;;12.00;5.63;;;;;;;;;;20601417;28;20471;-63
2022/10/13 09:48:26;;;;;;;11.05;5.32;;;;;;;;;;21067172;27;20408;-62
2022/10/13 09:58:30;;;;;;;17.52;7.32;;;;;;;;;;21067117;28;20467;-61
2022/10/13 10:08:55;;;;;;;2.97;1.70;;;;;;;;;;21065395;28;20500;-66
2022/10/13 10:19:02;;;;;;;8.55;3.63;;;;;;;;;;21064738;28;20048;-67
2022/10/13 10:29:10;;;;;;;10.27;4.47;;;;;;;;;;21065452;28;20044;-66
2022/10/13 10:39:19;;;;;;;11.17;4.10;;;;;;;;;;21063634;28;20048;-69
2022/10/13 10:49:31;;;;;;;9.57;4.15;;;;;;;;;;21062193;28;20457;-67
2022/10/13 10:59:49;;;;;;;9.55;4.32;;;;;;;;;;21005647;28;20570;-68
2022/10/13 11:09:51;;;;;;;6.00;3.93;;;;;;;;;;21005307;28;20052;-66
2022/10/13 11:19:53;;;;;;;7.85;3.65;;;;;;;;;;21006055;28;20049;-68
2022/10/13 11:29:57;;;;;;;9.98;4.43;;;;;;;;;;20928868;28;20052;-68
2022/10/13 11:40:16;;;;;;;8.90;2.85;;;;;;;;;;20921393;28;20060;-62
2022/10/13 11:50:21;;;;;;;6.00;3.85;;;;;;;;;;20920703;28;20049;-62
2022/10/13 12:00:23;;;;;;;8.88;3.58;;;;;;;;;;20920845;28;20114;-61
2022/10/13 12:10:30;;;;;;;8.20;3.50;;;;;;;;;;20917930;28;20056;-63
2022/10/13 12:20:32;;;;;;;9.97;3.47;;;;;;;;;;20917858;28;20122;-63
2022/10/13 12:30:35;;;;;;;9.30;3.60;;;;;;;;;;20915806;28;20135;-63
2022/10/13 12:40:38;;;;;;;7.65;3.22;;;;;;;;;;20914971;28;20103;-63
2022/10/13 12:50:40;;;;;;;9.75;3.72;;;;;;;;;;20915318;28;20095;-62
2022/10/13 13:00:43;;;;;;;6.47;3.15;;;;;;;;;;20913822;28;20128;-62
2022/10/13 13:10:54;;;;;;;5.60;3.17;;;;;;;;;;20915544;28;20041;-62
2022/10/13 13:20:56;;;;;;;7.43;3.75;;;;;;;;;;20913532;28;20611;-62
2022/10/13 13:31:00;;;;;;;9.93;3.25;;;;;;;;;;20912698;28;20049;-62
2022/10/13 13:41:03;;;;;;;7.30;2.55;;;;;;;;;;20912129;28;20061;-62
2022/10/13 13:51:05;;;;;;;10.45;5.53;;;;;;;;;;20913220;28;20049;-62
2022/10/13 14:01:07;;;;;;;5.28;1.77;;;;;;;;;;20912482;28;20119;-63
2022/10/13 14:11:09;;;;;;;4.43;2.70;;;;;;;;;;20911560;28;20045;-62
2022/10/13 14:21:12;;;;;;;6.00;1.90;;;;;;;;;;20910716;28;20045;-62
2022/10/13 14:31:14;;;;;;;4.63;1.73;;;;;;;;;;20920962;28;20438;-63
2022/10/13 14:41:16;;;;;;;5.72;2.22;;;;;;;;;;20925421;28;20053;-62
2022/10/13 14:51:18;;;;;;;3.08;1.60;;;;;;;;;;20925636;28;20045;-62
2022/10/13 15:01:20;;;;;;;3.88;1.40;;;;;;;;;;20924411;28;20061;-62
2022/10/13 15:11:23;;;;;;;2.92;1.63;;;;;;;;;;20923103;28;20061;-62
2022/10/13 15:21:25;;;;;;;3.30;1.35;;;;;;;;;;20922522;28;20055;-62
2022/10/13 15:31:29;;;;;;;2.47;1.30;;;;;;;;;;20921512;28;20091;-62
2022/10/13 15:41:32;;;;;;;4.40;2.20;;;;;;;;;;20920374;28;20060;-62
2022/10/13 15:51:33;;;;;;;5.07;1.50;;;;;;;;;;20920151;28;20045;-62
2022/10/13 16:01:36;;;;;;;6.53;1.52;;;;;;;;;;20919235;28;20053;-66
2022/10/13 16:11:38;;;;;;;3.13;1.40;;;;;;;;;;20917087;28;20470;-60
2022/10/13 16:21:41;;;;;;;4.15;1.40;;;;;;;;;;20912620;28;20095;-63
2022/10/13 16:31:43;;;;;;;12.80;4.03;;;;;;;;;;20908125;28;20057;-68
2022/10/13 16:41:46;;;;;;;7.97;2.55;;;;;;;;;;20895922;28;20052;-66
2022/10/13 16:51:48;;;;;;;10.40;3.83;;;;;;;;;;20906130;28;20110;-73
2022/10/13 17:01:50;;;;;;;5.53;3.35;;;;;;;;;;20903926;28;20048;-68
2022/10/13 17:11:52;;;;;;;7.30;3.13;;;;;;;;;;20907783;28;20106;-66
2022/10/13 17:21:54;;;;;;;6.93;3.72;;;;;;;;;;20910212;28;20413;-71
2022/10/13 17:31:56;;;;;;;11.07;5.53;;;;;;;;;;20905986;28;20049;-71
2022/10/13 17:41:58;;;;;;;9.52;4.47;;;;;;;;;;20902750;28;20052;-66
2022/10/13 17:52:00;;;;;;;6.00;3.25;;;;;;;;;;20904092;28;20091;-67
2022/10/13 18:02:02;;;;;;;6.53;4.07;;;;;;;;;;20909848;28;20136;-68
2022/10/13 18:12:04;;;;;;;20.40;10.38;;;;;;;;;;20921185;28;20045;-66
2022/10/13 18:22:06;;;;;;;15.65;10.23;;;;;;;;;;20926250;28;20057;-70
2022/10/13 18:32:08;;;;;;;8.73;5.03;;;;;;;;;;20926000;28;20061;-68
2022/10/13 18:42:10;;;;;;;7.60;4.57;;;;;;;;;;20907963;28;20530;-68
2022/10/13 18:52:12;;;;;;;8.63;3.47;;;;;;;;;;20854629;28;20064;-63
2022/10/13 19:02:14;;;;;;;8.52;2.92;;;;;;;;;;20839640;28;20441;-60
2022/10/13 19:12:16;;;;;;;6.07;3.35;;;;;;;;;;20839229;28;20053;-60
2022/10/13 19:22:18;;;;;;;5.05;3.00;;;;;;;;;;20840231;28;20053;-60
2022/10/13 19:32:20;;;;;;;5.68;3.33;;;;;;;;;;20838257;28;20491;-61
2022/10/13 19:42:22;;;;;;;6.20;3.10;;;;;;;;;;20838285;28;20080;-60
2022/10/13 19:52:24;;;;;;;7.40;3.47;;;;;;;;;;20837018;28;20045;-60
2022/10/13 20:02:26;;;;;;;5.90;2.83;;;;;;;;;;20836611;28;20061;-60
2022/10/13 20:12:29;;;;;;;5.72;2.80;;;;;;;;;;20835972;28;20486;-60
2022/10/13 20:22:32;;;;;;;6.13;2.10;;;;;;;;;;20835233;28;20046;-61
2022/10/13 20:32:34;;;;;;;5.78;3.58;;;;;;;;;;20833854;28;20071;-60
2022/10/13 20:42:37;;;;;;;7.82;3.28;;;;;;;;;;20832957;28;20061;-60
2022/10/13 20:52:38;;;;;;;4.90;3.60;;;;;;;;;;20833352;28;20079;-60
2022/10/13 21:02:41;;;;;;;9.02;4.57;;;;;;;;;;20847436;28;20057;-60
2022/10/13 21:12:43;;;;;;;8.57;3.22;;;;;;;;;;20832440;28;20490;-61
2022/10/13 21:22:45;;;;;;;8.90;2.60;;;;;;;;;;20832034;28;20057;-62
2022/10/13 21:32:48;;;;;;;4.00;2.53;;;;;;;;;;20830871;28;20056;-61
2022/10/13 21:42:50;;;;;;;5.72;2.70;;;;;;;;;;20830109;28;20077;-61
2022/10/13 21:52:51;;;;;;;4.90;2.92;;;;;;;;;;20830901;28;20553;-61
2022/10/13 22:02:53;;;;;;;5.28;2.90;;;;;;;;;;20830727;28;20395;-61
2022/10/13 22:12:56;;;;;;;11.20;4.00;;;;;;;;;;20830632;28;20406;-60
2022/10/13 22:22:58;;;;;;;6.60;2.80;;;;;;;;;;20829313;28;20426;-60
2022/10/13 22:33:00;;;;;;;6.63;2.40;;;;;;;;;;20829336;28;20425;-60
2022/10/13 22:43:02;;;;;;;6.53;2.80;;;;;;;;;;20827936;28;20085;-60
2022/10/13 22:53:04;;;;;;;5.93;2.42;;;;;;;;;;20837945;28;20478;-60
2022/10/13 23:03:06;;;;;;;5.05;2.65;;;;;;;;;;20842945;28;20057;-61
2022/10/13 23:13:08;;;;;;;5.55;2.25;;;;;;;;;;20841524;28;20045;-60
2022/10/13 23:23:10;;;;;;;5.47;3.00;;;;;;;;;;20841082;28;20053;-60
2022/10/13 23:33:12;;;;;;;5.13;2.28;;;;;;;;;;20839532;28;20045;-60
2022/10/13 23:43:14;;;;;;;3.92;2.63;;;;;;;;;;20853767;28;20049;-61
2022/10/13 23:53:16;;;;;;;8.63;3.30;;;;;;;;;;20838100;28;20049;-60
